sensor_id;sensor_type;location;lat;lon;timestamp;temperature;humidity
53208;DHT22;39093;52.788;6.940;2023-02-28T00:01:20;3.80;99.90
53208;DHT22;39093;52.788;6.940;2023-02-28T00:03:47;3.90;99.90
53208;DHT22;39093;52.788;6.940;2023-02-28T00:06:14;3.90;99.90
53208;DHT22;39093;52.788;6.940;2023-02-28T00:08:41;3.80;99.90
53208;DHT22;39093;52.788;6.940;2023-02-28T00:11:11;3.80;99.90
53208;DHT22;39093;52.788;6.940;2023-02-28T00:13:40;3.90;99.90
53208;DHT22;39093;52.788;6.940;2023-02-28T00:16:13;4.00;99.90
53208;DHT22;39093;52.788;6.940;2023-02-28T00:18:41;3.80;99.90
53208;DHT22;39093;52.788;6.940;2023-02-28T00:21:08;3.90;99.90
53208;DHT22;39093;52.788;6.940;2023-02-28T00:23:35;3.80;99.90
53208;DHT22;39093;52.788;6.940;2023-02-28T00:26:03;3.80;99.90
53208;DHT22;39093;52.788;6.940;2023-02-28T00:28:30;3.80;99.90
53208;DHT22;39093;52.788;6.940;2023-02-28T00:30:57;4.00;99.90
53208;DHT22;39093;52.788;6.940;2023-02-28T00:33:24;3.80;99.90
53208;DHT22;39093;52.788;6.940;2023-02-28T00:35:52;3.80;99.90
53208;DHT22;39093;52.788;6.940;2023-02-28T00:38:19;3.80;99.90
53208;DHT22;39093;52.788;6.940;2023-02-28T00:40:46;3.80;99.90
53208;DHT22;39093;52.788;6.940;2023-02-28T00:43:13;3.80;99.90
53208;DHT22;39093;52.788;6.940;2023-02-28T00:45:40;3.80;99.90
53208;DHT22;39093;52.788;6.940;2023-02-28T00:48:06;3.80;99.90
53208;DHT22;39093;52.788;6.940;2023-02-28T00:50:33;3.80;99.90
53208;DHT22;39093;52.788;6.940;2023-02-28T00:53:00;3.80;99.90
53208;DHT22;39093;52.788;6.940;2023-02-28T00:55:27;3.80;99.90
53208;DHT22;39093;52.788;6.940;2023-02-28T00:57:54;3.90;99.90
53208;DHT22;39093;52.788;6.940;2023-02-28T01:00:21;3.80;99.90
53208;DHT22;39093;52.788;6.940;2023-02-28T01:02:48;3.80;99.90
53208;DHT22;39093;52.788;6.940;2023-02-28T01:05:15;3.90;99.90
53208;DHT22;39093;52.788;6.940;2023-02-28T01:07:42;3.80;99.90
53208;DHT22;39093;52.788;6.940;2023-02-28T01:10:09;3.80;99.90
53208;DHT22;39093;52.788;6.940;2023-02-28T01:12:36;3.80;99.90
53208;DHT22;39093;52.788;6.940;2023-02-28T01:15:03;3.80;99.90
53208;DHT22;39093;52.788;6.940;2023-02-28T01:17:30;3.90;99.90
53208;DHT22;39093;52.788;6.940;2023-02-28T01:19:57;3.90;99.90
53208;DHT22;39093;52.788;6.940;2023-02-28T01:22:24;3.80;99.90
53208;DHT22;39093;52.788;6.940;2023-02-28T01:24:51;3.90;99.90
53208;DHT22;39093;52.788;6.940;2023-02-28T01:27:18;3.90;99.90
53208;DHT22;39093;52.788;6.940;2023-02-28T01:29:45;3.90;99.90
53208;DHT22;39093;52.788;6.940;2023-02-28T01:32:12;3.90;99.90
53208;DHT22;39093;52.788;6.940;2023-02-28T01:34:38;3.90;99.90
53208;DHT22;39093;52.788;6.940;2023-02-28T01:37:05;3.90;99.90
53208;DHT22;39093;52.788;6.940;2023-02-28T01:39:33;3.80;99.90
53208;DHT22;39093;52.788;6.940;2023-02-28T01:41:59;3.90;99.90
53208;DHT22;39093;52.788;6.940;2023-02-28T01:47:22;3.80;99.90
53208;DHT22;39093;52.788;6.940;2023-02-28T01:49:51;3.90;99.90
53208;DHT22;39093;52.788;6.940;2023-02-28T01:52:19;3.80;99.90
53208;DHT22;39093;52.788;6.940;2023-02-28T01:54:59;3.80;99.90
53208;DHT22;39093;52.788;6.940;2023-02-28T01:57:30;3.80;99.90
53208;DHT22;39093;52.788;6.940;2023-02-28T02:00:12;3.80;99.90
53208;DHT22;39093;52.788;6.940;2023-02-28T02:02:48;3.80;99.90
53208;DHT22;39093;52.788;6.940;2023-02-28T02:05:19;3.80;99.90
53208;DHT22;39093;52.788;6.940;2023-02-28T02:07:48;3.70;99.90
53208;DHT22;39093;52.788;6.940;2023-02-28T02:10:19;3.80;99.90
53208;DHT22;39093;52.788;6.940;2023-02-28T02:13:27;3.70;99.90
53208;DHT22;39093;52.788;6.940;2023-02-28T02:18:53;3.70;99.90
53208;DHT22;39093;52.788;6.940;2023-02-28T02:24:54;3.70;99.90
53208;DHT22;39093;52.788;6.940;2023-02-28T02:27:39;3.70;99.90
53208;DHT22;39093;52.788;6.940;2023-02-28T02:33:38;3.70;99.90
53208;DHT22;39093;52.788;6.940;2023-02-28T02:41:25;3.60;99.90
53208;DHT22;39093;52.788;6.940;2023-02-28T02:44:06;3.60;99.90
53208;DHT22;39093;52.788;6.940;2023-02-28T02:46:37;3.60;99.90
53208;DHT22;39093;52.788;6.940;2023-02-28T02:49:08;3.60;99.90
53208;DHT22;39093;52.788;6.940;2023-02-28T02:51:37;3.60;99.90
53208;DHT22;39093;52.788;6.940;2023-02-28T02:54:11;3.60;99.90
53208;DHT22;39093;52.788;6.940;2023-02-28T02:56:44;3.60;99.90
53208;DHT22;39093;52.788;6.940;2023-02-28T02:59:14;3.60;99.90
53208;DHT22;39093;52.788;6.940;2023-02-28T03:01:41;3.60;99.90
53208;DHT22;39093;52.788;6.940;2023-02-28T03:04:17;3.50;99.90
53208;DHT22;39093;52.788;6.940;2023-02-28T03:06:45;3.60;99.90
53208;DHT22;39093;52.788;6.940;2023-02-28T03:09:12;3.50;99.90
53208;DHT22;39093;52.788;6.940;2023-02-28T03:11:40;3.60;99.90
53208;DHT22;39093;52.788;6.940;2023-02-28T03:25:08;3.50;99.90
53208;DHT22;39093;52.788;6.940;2023-02-28T03:28:05;3.50;99.90
53208;DHT22;39093;52.788;6.940;2023-02-28T03:33:18;3.50;99.90
53208;DHT22;39093;52.788;6.940;2023-02-28T03:36:02;3.50;99.90
53208;DHT22;39093;52.788;6.940;2023-02-28T03:38:58;3.50;99.90
53208;DHT22;39093;52.788;6.940;2023-02-28T03:41:39;3.50;99.90
53208;DHT22;39093;52.788;6.940;2023-02-28T03:44:12;3.80;99.90
53208;DHT22;39093;52.788;6.940;2023-02-28T03:46:48;3.50;99.90
53208;DHT22;39093;52.788;6.940;2023-02-28T03:49:22;3.50;99.90
53208;DHT22;39093;52.788;6.940;2023-02-28T03:51:51;3.50;99.90
53208;DHT22;39093;52.788;6.940;2023-02-28T03:54:23;3.50;99.90
53208;DHT22;39093;52.788;6.940;2023-02-28T03:56:59;3.50;99.90
53208;DHT22;39093;52.788;6.940;2023-02-28T03:59:33;3.50;99.90
53208;DHT22;39093;52.788;6.940;2023-02-28T04:02:01;3.50;99.90
53208;DHT22;39093;52.788;6.940;2023-02-28T04:04:29;3.50;99.90
53208;DHT22;39093;52.788;6.940;2023-02-28T04:07:07;3.70;99.90
53208;DHT22;39093;52.788;6.940;2023-02-28T04:09:35;3.50;99.90
53208;DHT22;39093;52.788;6.940;2023-02-28T04:12:02;3.50;99.90
53208;DHT22;39093;52.788;6.940;2023-02-28T04:14:29;3.50;99.90
53208;DHT22;39093;52.788;6.940;2023-02-28T04:16:56;3.50;99.90
53208;DHT22;39093;52.788;6.940;2023-02-28T04:19:23;3.50;99.90
53208;DHT22;39093;52.788;6.940;2023-02-28T04:21:51;3.50;99.90
53208;DHT22;39093;52.788;6.940;2023-02-28T04:24:21;3.60;99.90
53208;DHT22;39093;52.788;6.940;2023-02-28T04:26:51;3.40;99.90
53208;DHT22;39093;52.788;6.940;2023-02-28T04:31:53;3.50;99.90
53208;DHT22;39093;52.788;6.940;2023-02-28T04:34:21;3.50;99.90
53208;DHT22;39093;52.788;6.940;2023-02-28T04:36:48;3.70;99.90
53208;DHT22;39093;52.788;6.940;2023-02-28T04:39:37;3.50;99.90
53208;DHT22;39093;52.788;6.940;2023-02-28T04:42:05;3.50;99.90
53208;DHT22;39093;52.788;6.940;2023-02-28T04:44:32;3.50;99.90
53208;DHT22;39093;52.788;6.940;2023-02-28T04:46:59;3.40;99.90
53208;DHT22;39093;52.788;6.940;2023-02-28T04:49:26;3.40;99.90
53208;DHT22;39093;52.788;6.940;2023-02-28T04:51:53;3.40;99.90
53208;DHT22;39093;52.788;6.940;2023-02-28T04:54:20;3.40;99.90
53208;DHT22;39093;52.788;6.940;2023-02-28T04:56:47;3.40;99.90
53208;DHT22;39093;52.788;6.940;2023-02-28T04:59:16;3.40;99.90
53208;DHT22;39093;52.788;6.940;2023-02-28T05:01:47;3.40;99.90
53208;DHT22;39093;52.788;6.940;2023-02-28T05:04:14;3.40;99.90
53208;DHT22;39093;52.788;6.940;2023-02-28T05:06:41;3.40;99.90
53208;DHT22;39093;52.788;6.940;2023-02-28T05:09:08;3.40;99.90
53208;DHT22;39093;52.788;6.940;2023-02-28T05:11:38;3.40;99.90
53208;DHT22;39093;52.788;6.940;2023-02-28T05:14:13;3.40;99.90
53208;DHT22;39093;52.788;6.940;2023-02-28T05:16:41;3.40;99.90
53208;DHT22;39093;52.788;6.940;2023-02-28T05:19:08;3.40;99.90
53208;DHT22;39093;52.788;6.940;2023-02-28T05:21:52;3.40;99.90
53208;DHT22;39093;52.788;6.940;2023-02-28T05:24:20;3.40;99.90
53208;DHT22;39093;52.788;6.940;2023-02-28T05:26:52;3.40;99.90
53208;DHT22;39093;52.788;6.940;2023-02-28T05:29:19;3.40;99.90
53208;DHT22;39093;52.788;6.940;2023-02-28T05:31:46;3.40;99.90
53208;DHT22;39093;52.788;6.940;2023-02-28T05:34:14;3.40;99.90
53208;DHT22;39093;52.788;6.940;2023-02-28T05:36:43;3.40;99.90
53208;DHT22;39093;52.788;6.940;2023-02-28T05:39:10;3.40;99.90
53208;DHT22;39093;52.788;6.940;2023-02-28T05:41:41;3.40;99.90
53208;DHT22;39093;52.788;6.940;2023-02-28T05:44:08;3.40;99.90
53208;DHT22;39093;52.788;6.940;2023-02-28T05:46:35;3.40;99.90
53208;DHT22;39093;52.788;6.940;2023-02-28T05:49:02;3.30;99.90
53208;DHT22;39093;52.788;6.940;2023-02-28T05:51:29;3.40;99.90
53208;DHT22;39093;52.788;6.940;2023-02-28T05:54:01;3.40;99.90
53208;DHT22;39093;52.788;6.940;2023-02-28T05:56:28;3.40;99.90
53208;DHT22;39093;52.788;6.940;2023-02-28T05:58:55;3.40;99.90
53208;DHT22;39093;52.788;6.940;2023-02-28T06:01:23;3.40;99.90
53208;DHT22;39093;52.788;6.940;2023-02-28T06:03:51;3.30;99.90
53208;DHT22;39093;52.788;6.940;2023-02-28T06:06:18;3.30;99.90
53208;DHT22;39093;52.788;6.940;2023-02-28T06:08:45;3.30;99.90
53208;DHT22;39093;52.788;6.940;2023-02-28T06:11:12;3.30;99.90
53208;DHT22;39093;52.788;6.940;2023-02-28T06:13:39;3.30;99.90
53208;DHT22;39093;52.788;6.940;2023-02-28T06:16:06;3.30;99.90
53208;DHT22;39093;52.788;6.940;2023-02-28T06:18:34;3.30;99.90
53208;DHT22;39093;52.788;6.940;2023-02-28T06:21:01;3.30;99.90
53208;DHT22;39093;52.788;6.940;2023-02-28T06:23:28;3.30;99.90
53208;DHT22;39093;52.788;6.940;2023-02-28T06:25:55;3.30;99.90
53208;DHT22;39093;52.788;6.940;2023-02-28T06:28:25;3.30;99.90
53208;DHT22;39093;52.788;6.940;2023-02-28T06:30:52;3.30;99.90
53208;DHT22;39093;52.788;6.940;2023-02-28T06:33:19;3.30;99.90
53208;DHT22;39093;52.788;6.940;2023-02-28T06:35:47;3.70;99.90
53208;DHT22;39093;52.788;6.940;2023-02-28T06:38:16;3.30;99.90
53208;DHT22;39093;52.788;6.940;2023-02-28T06:40:45;3.30;99.90
53208;DHT22;39093;52.788;6.940;2023-02-28T06:43:19;3.30;99.90
53208;DHT22;39093;52.788;6.940;2023-02-28T06:45:46;3.30;99.90
53208;DHT22;39093;52.788;6.940;2023-02-28T06:48:12;3.30;99.90
53208;DHT22;39093;52.788;6.940;2023-02-28T06:50:39;3.50;99.90
53208;DHT22;39093;52.788;6.940;2023-02-28T06:53:06;3.30;99.90
53208;DHT22;39093;52.788;6.940;2023-02-28T06:55:33;3.40;99.90
53208;DHT22;39093;52.788;6.940;2023-02-28T06:58:00;3.40;99.90
53208;DHT22;39093;52.788;6.940;2023-02-28T07:00:27;3.40;99.90
53208;DHT22;39093;52.788;6.940;2023-02-28T07:02:54;3.40;99.90
53208;DHT22;39093;52.788;6.940;2023-02-28T07:05:21;3.40;99.90
53208;DHT22;39093;52.788;6.940;2023-02-28T07:07:48;3.40;99.90
53208;DHT22;39093;52.788;6.940;2023-02-28T07:10:15;3.40;99.90
53208;DHT22;39093;52.788;6.940;2023-02-28T07:12:45;3.30;99.90
53208;DHT22;39093;52.788;6.940;2023-02-28T07:15:12;3.30;99.90
53208;DHT22;39093;52.788;6.940;2023-02-28T07:17:39;3.30;99.90
53208;DHT22;39093;52.788;6.940;2023-02-28T07:20:07;3.30;99.90
53208;DHT22;39093;52.788;6.940;2023-02-28T07:22:34;3.20;99.90
53208;DHT22;39093;52.788;6.940;2023-02-28T07:25:01;3.20;99.90
53208;DHT22;39093;52.788;6.940;2023-02-28T07:27:28;3.20;99.90
53208;DHT22;39093;52.788;6.940;2023-02-28T07:29:55;3.10;99.90
53208;DHT22;39093;52.788;6.940;2023-02-28T07:32:22;3.10;99.90
53208;DHT22;39093;52.788;6.940;2023-02-28T07:34:49;3.10;99.90
53208;DHT22;39093;52.788;6.940;2023-02-28T07:37:16;3.10;99.90
53208;DHT22;39093;52.788;6.940;2023-02-28T07:39:42;3.30;99.90
53208;DHT22;39093;52.788;6.940;2023-02-28T07:42:09;3.10;99.90
53208;DHT22;39093;52.788;6.940;2023-02-28T07:44:39;3.20;99.90
53208;DHT22;39093;52.788;6.940;2023-02-28T07:47:10;3.20;99.90
53208;DHT22;39093;52.788;6.940;2023-02-28T07:49:37;3.30;99.90
53208;DHT22;39093;52.788;6.940;2023-02-28T07:52:05;3.30;99.90
53208;DHT22;39093;52.788;6.940;2023-02-28T07:54:33;3.30;99.90
53208;DHT22;39093;52.788;6.940;2023-02-28T07:57:00;3.40;99.90
53208;DHT22;39093;52.788;6.940;2023-02-28T07:59:27;3.50;99.90
53208;DHT22;39093;52.788;6.940;2023-02-28T08:01:58;3.40;99.90
53208;DHT22;39093;52.788;6.940;2023-02-28T08:04:26;3.50;99.90
53208;DHT22;39093;52.788;6.940;2023-02-28T08:06:52;3.50;99.90
53208;DHT22;39093;52.788;6.940;2023-02-28T08:09:20;3.60;99.90
53208;DHT22;39093;52.788;6.940;2023-02-28T08:11:47;3.60;99.90
53208;DHT22;39093;52.788;6.940;2023-02-28T08:14:14;3.70;99.90
53208;DHT22;39093;52.788;6.940;2023-02-28T08:16:41;3.70;99.90
53208;DHT22;39093;52.788;6.940;2023-02-28T08:19:09;3.70;99.90
53208;DHT22;39093;52.788;6.940;2023-02-28T08:21:36;3.80;99.90
53208;DHT22;39093;52.788;6.940;2023-02-28T08:24:03;3.80;99.90
53208;DHT22;39093;52.788;6.940;2023-02-28T08:26:30;3.80;99.90
53208;DHT22;39093;52.788;6.940;2023-02-28T08:28:57;3.80;99.90
53208;DHT22;39093;52.788;6.940;2023-02-28T08:31:27;3.70;99.90
53208;DHT22;39093;52.788;6.940;2023-02-28T08:33:54;3.70;99.90
53208;DHT22;39093;52.788;6.940;2023-02-28T08:36:26;3.70;99.90
53208;DHT22;39093;52.788;6.940;2023-02-28T08:38:56;3.70;99.90
53208;DHT22;39093;52.788;6.940;2023-02-28T08:41:23;3.70;99.90
53208;DHT22;39093;52.788;6.940;2023-02-28T08:43:50;3.90;99.90
53208;DHT22;39093;52.788;6.940;2023-02-28T08:46:17;3.70;99.90
53208;DHT22;39093;52.788;6.940;2023-02-28T08:48:44;3.80;99.90
53208;DHT22;39093;52.788;6.940;2023-02-28T08:51:16;4.10;99.90
53208;DHT22;39093;52.788;6.940;2023-02-28T08:53:45;3.70;99.90
53208;DHT22;39093;52.788;6.940;2023-02-28T08:56:13;3.70;99.90
53208;DHT22;39093;52.788;6.940;2023-02-28T08:58:41;3.70;99.90
53208;DHT22;39093;52.788;6.940;2023-02-28T09:01:16;3.70;99.90
53208;DHT22;39093;52.788;6.940;2023-02-28T09:03:45;3.70;99.90
53208;DHT22;39093;52.788;6.940;2023-02-28T09:06:14;3.70;99.90
53208;DHT22;39093;52.788;6.940;2023-02-28T09:08:41;3.70;99.90
53208;DHT22;39093;52.788;6.940;2023-02-28T09:11:08;3.70;99.90
53208;DHT22;39093;52.788;6.940;2023-02-28T09:13:36;3.70;99.90
53208;DHT22;39093;52.788;6.940;2023-02-28T09:16:05;3.60;99.90
53208;DHT22;39093;52.788;6.940;2023-02-28T09:18:36;3.70;99.90
53208;DHT22;39093;52.788;6.940;2023-02-28T09:21:05;3.70;99.90
53208;DHT22;39093;52.788;6.940;2023-02-28T09:23:33;3.70;99.90
53208;DHT22;39093;52.788;6.940;2023-02-28T09:26:00;3.70;99.90
53208;DHT22;39093;52.788;6.940;2023-02-28T09:28:27;3.70;99.90
53208;DHT22;39093;52.788;6.940;2023-02-28T09:30:54;3.80;99.90
53208;DHT22;39093;52.788;6.940;2023-02-28T09:33:22;3.70;99.90
53208;DHT22;39093;52.788;6.940;2023-02-28T09:35:49;3.90;99.90
53208;DHT22;39093;52.788;6.940;2023-02-28T09:38:17;3.80;99.90
53208;DHT22;39093;52.788;6.940;2023-02-28T09:40:53;3.90;99.90
53208;DHT22;39093;52.788;6.940;2023-02-28T09:43:24;3.80;99.90
53208;DHT22;39093;52.788;6.940;2023-02-28T09:48:44;3.90;99.90
53208;DHT22;39093;52.788;6.940;2023-02-28T09:54:23;4.00;99.90
53208;DHT22;39093;52.788;6.940;2023-02-28T09:56:59;4.10;99.90
53208;DHT22;39093;52.788;6.940;2023-02-28T10:05:10;4.20;99.90
53208;DHT22;39093;52.788;6.940;2023-02-28T10:10:27;4.40;99.90
53208;DHT22;39093;52.788;6.940;2023-02-28T10:12:57;4.50;99.90
53208;DHT22;39093;52.788;6.940;2023-02-28T10:15:29;4.50;99.90
53208;DHT22;39093;52.788;6.940;2023-02-28T10:18:06;4.50;99.90
53208;DHT22;39093;52.788;6.940;2023-02-28T10:20:40;4.50;99.90
53208;DHT22;39093;52.788;6.940;2023-02-28T10:23:19;4.50;99.90
53208;DHT22;39093;52.788;6.940;2023-02-28T10:26:05;4.60;99.90
53208;DHT22;39093;52.788;6.940;2023-02-28T10:28:35;4.70;99.90
53208;DHT22;39093;52.788;6.940;2023-02-28T10:31:02;4.80;99.90
53208;DHT22;39093;52.788;6.940;2023-02-28T10:33:34;4.80;99.90
53208;DHT22;39093;52.788;6.940;2023-02-28T10:36:03;4.80;99.90
53208;DHT22;39093;52.788;6.940;2023-02-28T10:38:36;4.80;99.90
53208;DHT22;39093;52.788;6.940;2023-02-28T10:41:27;4.80;99.90
53208;DHT22;39093;52.788;6.940;2023-02-28T10:46:42;5.10;99.90
53208;DHT22;39093;52.788;6.940;2023-02-28T10:49:16;5.00;99.90
53208;DHT22;39093;52.788;6.940;2023-02-28T10:51:44;5.10;99.90
53208;DHT22;39093;52.788;6.940;2023-02-28T10:54:19;5.10;99.90
53208;DHT22;39093;52.788;6.940;2023-02-28T10:57:18;5.30;99.90
53208;DHT22;39093;52.788;6.940;2023-02-28T10:59:46;5.40;99.80
53208;DHT22;39093;52.788;6.940;2023-02-28T11:02:34;5.60;98.80
53208;DHT22;39093;52.788;6.940;2023-02-28T11:05:02;5.90;99.90
53208;DHT22;39093;52.788;6.940;2023-02-28T11:07:29;6.10;99.90
53208;DHT22;39093;52.788;6.940;2023-02-28T11:10:20;6.40;99.70
53208;DHT22;39093;52.788;6.940;2023-02-28T11:12:48;6.50;99.30
53208;DHT22;39093;52.788;6.940;2023-02-28T11:15:28;6.60;99.00
53208;DHT22;39093;52.788;6.940;2023-02-28T11:18:22;6.70;99.20
53208;DHT22;39093;52.788;6.940;2023-02-28T11:20:49;6.60;98.30
53208;DHT22;39093;52.788;6.940;2023-02-28T11:23:19;6.60;97.80
53208;DHT22;39093;52.788;6.940;2023-02-28T11:25:51;6.80;98.80
53208;DHT22;39093;52.788;6.940;2023-02-28T11:28:27;6.80;98.40
53208;DHT22;39093;52.788;6.940;2023-02-28T11:33:49;6.70;96.20
53208;DHT22;39093;52.788;6.940;2023-02-28T11:36:29;6.80;96.70
53208;DHT22;39093;52.788;6.940;2023-02-28T11:38:59;7.10;97.40
53208;DHT22;39093;52.788;6.940;2023-02-28T11:46:52;8.10;94.10
53208;DHT22;39093;52.788;6.940;2023-02-28T11:52:15;9.50;92.30
53208;DHT22;39093;52.788;6.940;2023-02-28T11:57:52;11.00;84.70
53208;DHT22;39093;52.788;6.940;2023-02-28T12:06:22;12.70;77.50
53208;DHT22;39093;52.788;6.940;2023-02-28T12:14:14;14.20;72.40
53208;DHT22;39093;52.788;6.940;2023-02-28T12:22:43;15.70;66.10
53208;DHT22;39093;52.788;6.940;2023-02-28T12:28:10;16.20;65.60
53208;DHT22;39093;52.788;6.940;2023-02-28T12:30:46;16.50;67.50
53208;DHT22;39093;52.788;6.940;2023-02-28T12:33:17;16.70;64.10
53208;DHT22;39093;52.788;6.940;2023-02-28T12:35:56;16.80;66.30
53208;DHT22;39093;52.788;6.940;2023-02-28T12:38:37;16.60;62.40
53208;DHT22;39093;52.788;6.940;2023-02-28T12:41:15;16.80;64.30
53208;DHT22;39093;52.788;6.940;2023-02-28T12:43:57;17.10;62.10
53208;DHT22;39093;52.788;6.940;2023-02-28T12:46:34;17.40;63.40
53208;DHT22;39093;52.788;6.940;2023-02-28T12:49:30;16.80;58.10
53208;DHT22;39093;52.788;6.940;2023-02-28T12:51:53;17.00;61.20
53208;DHT22;39093;52.788;6.940;2023-02-28T12:57:39;17.60;57.80
53208;DHT22;39093;52.788;6.940;2023-02-28T13:00:20;17.90;57.50
53208;DHT22;39093;52.788;6.940;2023-02-28T13:10:40;18.00;56.30
53208;DHT22;39093;52.788;6.940;2023-02-28T13:13:23;18.00;55.40
53208;DHT22;39093;52.788;6.940;2023-02-28T13:16:07;18.40;55.70
53208;DHT22;39093;52.788;6.940;2023-02-28T13:18:45;18.70;55.70
53208;DHT22;39093;52.788;6.940;2023-02-28T13:21:29;18.80;54.80
53208;DHT22;39093;52.788;6.940;2023-02-28T13:24:02;19.00;51.80
53208;DHT22;39093;52.788;6.940;2023-02-28T13:34:37;19.20;51.60
53208;DHT22;39093;52.788;6.940;2023-02-28T13:39:56;19.40;52.60
53208;DHT22;39093;52.788;6.940;2023-02-28T13:42:37;19.70;54.60
53208;DHT22;39093;52.788;6.940;2023-02-28T13:47:42;19.50;52.90
53208;DHT22;39093;52.788;6.940;2023-02-28T13:56:03;19.60;50.40
53208;DHT22;39093;52.788;6.940;2023-02-28T13:58:53;20.00;49.90
53208;DHT22;39093;52.788;6.940;2023-02-28T14:06:37;19.90;47.70
53208;DHT22;39093;52.788;6.940;2023-02-28T14:09:24;20.00;49.40
53208;DHT22;39093;52.788;6.940;2023-02-28T14:11:52;20.20;47.30
53208;DHT22;39093;52.788;6.940;2023-02-28T14:17:03;19.80;48.90
53208;DHT22;39093;52.788;6.940;2023-02-28T14:19:32;19.80;48.90
53208;DHT22;39093;52.788;6.940;2023-02-28T14:27:50;20.00;49.70
53208;DHT22;39093;52.788;6.940;2023-02-28T14:33:42;19.90;47.90
53208;DHT22;39093;52.788;6.940;2023-02-28T14:36:23;19.70;49.50
53208;DHT22;39093;52.788;6.940;2023-02-28T14:38:54;19.70;47.70
53208;DHT22;39093;52.788;6.940;2023-02-28T14:41:24;19.40;49.20
53208;DHT22;39093;52.788;6.940;2023-02-28T14:43:58;19.30;50.30
53208;DHT22;39093;52.788;6.940;2023-02-28T14:46:30;19.80;49.20
53208;DHT22;39093;52.788;6.940;2023-02-28T14:49:01;19.70;48.30
53208;DHT22;39093;52.788;6.940;2023-02-28T14:51:30;19.60;49.30
53208;DHT22;39093;52.788;6.940;2023-02-28T14:54:00;19.50;48.70
53208;DHT22;39093;52.788;6.940;2023-02-28T14:56:37;19.10;49.50
53208;DHT22;39093;52.788;6.940;2023-02-28T14:59:20;18.50;50.20
53208;DHT22;39093;52.788;6.940;2023-02-28T15:01:52;18.30;49.70
53208;DHT22;39093;52.788;6.940;2023-02-28T15:04:26;18.20;49.20
53208;DHT22;39093;52.788;6.940;2023-02-28T15:07:09;17.80;48.20
53208;DHT22;39093;52.788;6.940;2023-02-28T15:09:36;17.60;50.20
53208;DHT22;39093;52.788;6.940;2023-02-28T15:12:04;17.20;51.00
53208;DHT22;39093;52.788;6.940;2023-02-28T15:14:31;16.70;51.90
53208;DHT22;39093;52.788;6.940;2023-02-28T15:17:06;16.10;51.70
53208;DHT22;39093;52.788;6.940;2023-02-28T15:19:37;15.60;52.00
53208;DHT22;39093;52.788;6.940;2023-02-28T15:22:17;15.00;53.80
53208;DHT22;39093;52.788;6.940;2023-02-28T15:24:50;14.90;53.90
53208;DHT22;39093;52.788;6.940;2023-02-28T15:27:32;14.70;54.20
53208;DHT22;39093;52.788;6.940;2023-02-28T15:30:05;14.60;55.00
53208;DHT22;39093;52.788;6.940;2023-02-28T15:32:35;14.20;54.70
53208;DHT22;39093;52.788;6.940;2023-02-28T15:35:28;13.50;55.20
53208;DHT22;39093;52.788;6.940;2023-02-28T15:40:36;12.60;55.70
53208;DHT22;39093;52.788;6.940;2023-02-28T15:45:40;11.60;57.40
53208;DHT22;39093;52.788;6.940;2023-02-28T15:48:44;11.30;58.40
53208;DHT22;39093;52.788;6.940;2023-02-28T15:56:29;10.70;61.00
53208;DHT22;39093;52.788;6.940;2023-02-28T15:58:58;10.40;62.20
53208;DHT22;39093;52.788;6.940;2023-02-28T16:01:28;10.20;61.70
53208;DHT22;39093;52.788;6.940;2023-02-28T16:04:12;10.00;62.30
53208;DHT22;39093;52.788;6.940;2023-02-28T16:06:44;9.80;63.50
53208;DHT22;39093;52.788;6.940;2023-02-28T16:09:14;9.70;63.90
53208;DHT22;39093;52.788;6.940;2023-02-28T16:11:45;9.60;63.00
53208;DHT22;39093;52.788;6.940;2023-02-28T16:14:15;9.50;64.20
53208;DHT22;39093;52.788;6.940;2023-02-28T16:16:45;9.50;63.80
53208;DHT22;39093;52.788;6.940;2023-02-28T16:19:13;9.50;64.70
53208;DHT22;39093;52.788;6.940;2023-02-28T16:21:40;9.40;64.80
53208;DHT22;39093;52.788;6.940;2023-02-28T16:24:07;9.30;64.80
53208;DHT22;39093;52.788;6.940;2023-02-28T16:26:34;9.30;65.50
53208;DHT22;39093;52.788;6.940;2023-02-28T16:29:04;9.30;65.30
53208;DHT22;39093;52.788;6.940;2023-02-28T16:31:34;9.40;65.40
53208;DHT22;39093;52.788;6.940;2023-02-28T16:34:02;9.00;66.10
53208;DHT22;39093;52.788;6.940;2023-02-28T16:36:30;8.80;66.30
53208;DHT22;39093;52.788;6.940;2023-02-28T16:38:57;8.80;66.70
53208;DHT22;39093;52.788;6.940;2023-02-28T16:41:28;8.60;67.70
53208;DHT22;39093;52.788;6.940;2023-02-28T16:44:12;8.50;67.50
53208;DHT22;39093;52.788;6.940;2023-02-28T16:46:39;8.30;67.70
53208;DHT22;39093;52.788;6.940;2023-02-28T16:49:12;8.30;68.90
53208;DHT22;39093;52.788;6.940;2023-02-28T16:51:39;8.20;69.30
53208;DHT22;39093;52.788;6.940;2023-02-28T16:54:06;8.10;69.70
53208;DHT22;39093;52.788;6.940;2023-02-28T16:56:34;8.10;69.60
53208;DHT22;39093;52.788;6.940;2023-02-28T16:59:01;8.00;70.40
53208;DHT22;39093;52.788;6.940;2023-02-28T17:01:28;7.90;71.00
53208;DHT22;39093;52.788;6.940;2023-02-28T17:03:56;7.90;70.70
53208;DHT22;39093;52.788;6.940;2023-02-28T17:06:26;7.80;71.40
53208;DHT22;39093;52.788;6.940;2023-02-28T17:08:56;7.80;71.90
53208;DHT22;39093;52.788;6.940;2023-02-28T17:11:24;7.70;72.20
53208;DHT22;39093;52.788;6.940;2023-02-28T17:13:51;7.60;72.90
53208;DHT22;39093;52.788;6.940;2023-02-28T17:16:30;7.50;74.50
53208;DHT22;39093;52.788;6.940;2023-02-28T17:19:01;7.50;74.80
53208;DHT22;39093;52.788;6.940;2023-02-28T17:21:30;7.40;76.20
53208;DHT22;39093;52.788;6.940;2023-02-28T17:23:58;7.30;76.60
53208;DHT22;39093;52.788;6.940;2023-02-28T17:26:25;7.30;76.60
53208;DHT22;39093;52.788;6.940;2023-02-28T17:28:58;7.30;78.80
53208;DHT22;39093;52.788;6.940;2023-02-28T17:31:26;7.10;78.70
53208;DHT22;39093;52.788;6.940;2023-02-28T17:33:53;7.20;80.30
53208;DHT22;39093;52.788;6.940;2023-02-28T17:36:25;7.00;80.90
53208;DHT22;39093;52.788;6.940;2023-02-28T17:38:53;6.90;81.40
53208;DHT22;39093;52.788;6.940;2023-02-28T17:41:22;6.80;81.80
53208;DHT22;39093;52.788;6.940;2023-02-28T17:43:49;6.80;82.50
53208;DHT22;39093;52.788;6.940;2023-02-28T17:46:19;6.70;82.50
53208;DHT22;39093;52.788;6.940;2023-02-28T17:48:48;6.70;82.60
53208;DHT22;39093;52.788;6.940;2023-02-28T17:51:16;6.60;81.90
53208;DHT22;39093;52.788;6.940;2023-02-28T17:53:44;6.60;82.40
53208;DHT22;39093;52.788;6.940;2023-02-28T17:56:13;6.50;82.80
53208;DHT22;39093;52.788;6.940;2023-02-28T17:58:41;6.50;83.20
53208;DHT22;39093;52.788;6.940;2023-02-28T18:01:08;6.40;83.60
53208;DHT22;39093;52.788;6.940;2023-02-28T18:03:35;6.30;84.70
53208;DHT22;39093;52.788;6.940;2023-02-28T18:06:02;6.30;86.80
53208;DHT22;39093;52.788;6.940;2023-02-28T18:08:30;6.20;87.40
53208;DHT22;39093;52.788;6.940;2023-02-28T18:10:57;6.10;88.30
53208;DHT22;39093;52.788;6.940;2023-02-28T18:13:24;6.50;89.00
53208;DHT22;39093;52.788;6.940;2023-02-28T18:15:51;6.00;90.00
53208;DHT22;39093;52.788;6.940;2023-02-28T18:18:19;5.90;90.40
53208;DHT22;39093;52.788;6.940;2023-02-28T18:20:45;5.90;90.80
53208;DHT22;39093;52.788;6.940;2023-02-28T18:23:15;5.80;90.80
53208;DHT22;39093;52.788;6.940;2023-02-28T18:25:44;5.80;91.40
53208;DHT22;39093;52.788;6.940;2023-02-28T18:28:10;5.80;91.40